createdAt,value
2023-04-08T00:01:36.180Z,13.13
2023-04-08T00:06:28.304Z,12.70
2023-04-08T00:11:20.428Z,13.67
2023-04-08T00:16:12.406Z,15.37
2023-04-08T00:21:04.745Z,15.17
2023-04-08T00:25:56.760Z,15.00
2023-04-08T00:30:48.755Z,16.10
2023-04-08T00:35:41.189Z,14.57
2023-04-08T00:40:33.339Z,15.53
2023-04-08T00:45:26.030Z,14.73
2023-04-08T00:50:18.630Z,18.57
2023-04-08T00:55:10.840Z,17.33
2023-04-08T01:00:05.971Z,18.90
2023-04-08T01:11:35.176Z,19.10
2023-04-08T01:16:27.802Z,19.77
2023-04-08T01:21:22.268Z,17.57
2023-04-08T01:26:22.754Z,17.40
2023-04-08T01:31:18.295Z,19.30
2023-04-08T01:36:11.317Z,17.60
2023-04-08T01:41:05.731Z,19.90
2023-04-08T01:45:58.838Z,18.03
2023-04-08T01:50:52.058Z,17.10
2023-04-08T01:55:46.474Z,14.17
2023-04-08T02:00:42.828Z,14.03
2023-04-08T02:05:35.027Z,15.10
2023-04-08T02:10:28.350Z,15.53
2023-04-08T02:15:21.969Z,14.57
2023-04-08T02:20:19.126Z,13.13
2023-04-08T02:25:16.490Z,12.50
2023-04-08T02:30:10.971Z,11.80
2023-04-08T02:35:06.932Z,10.37
2023-04-08T02:39:59.293Z,10.80
2023-04-08T02:44:52.040Z,9.93
2023-04-08T02:49:44.173Z,9.43
2023-04-08T02:54:36.253Z,7.87
2023-04-08T02:59:28.233Z,9.33
2023-04-08T03:04:20.370Z,8.97
2023-04-08T03:09:12.340Z,8.37
2023-04-08T03:14:04.371Z,7.73
2023-04-08T03:18:57.737Z,8.83
2023-04-08T03:23:49.740Z,7.17
2023-04-08T03:28:41.761Z,6.33
2023-04-08T03:33:33.890Z,6.53
2023-04-08T03:38:26.010Z,6.47
2023-04-08T03:43:19.667Z,5.13
2023-04-08T03:48:12.801Z,6.03
2023-04-08T03:53:04.924Z,5.73
2023-04-08T03:57:56.930Z,6.00
2023-04-08T04:02:49.003Z,5.53
2023-04-08T04:07:41.016Z,5.17
2023-04-08T04:12:34.209Z,4.77
2023-04-08T04:17:26.326Z,6.27
2023-04-08T04:22:18.424Z,5.17
2023-04-08T04:27:10.411Z,6.60
2023-04-08T04:32:02.350Z,6.17
2023-04-08T04:36:54.394Z,6.67
2023-04-08T04:41:47.500Z,6.67
2023-04-08T04:46:39.612Z,7.70
2023-04-08T04:51:33.271Z,6.07
2023-04-08T04:56:26.656Z,7.83
2023-04-08T05:01:18.672Z,8.17
2023-04-08T05:06:10.976Z,7.40
2023-04-08T05:11:02.974Z,6.20
2023-04-08T05:15:55.271Z,6.47
2023-04-08T05:20:47.435Z,7.03
2023-04-08T05:25:39.386Z,6.10
2023-04-08T05:30:31.544Z,7.23
2023-04-08T05:35:24.806Z,6.60
2023-04-08T05:40:18.035Z,8.50
2023-04-08T05:45:10.607Z,8.80
2023-04-08T05:50:02.652Z,7.87
2023-04-08T05:54:54.657Z,15.23
2023-04-08T05:59:46.796Z,14.63
2023-04-08T06:04:38.936Z,11.80
2023-04-08T06:09:31.053Z,11.03
2023-04-08T06:14:23.006Z,8.60
2023-04-08T06:19:15.613Z,9.97
2023-04-08T06:24:07.714Z,13.10
2023-04-08T06:28:59.935Z,13.33
2023-04-08T06:33:52.495Z,13.80
2023-04-08T06:38:44.424Z,14.20
2023-04-08T06:43:38.052Z,17.47
2023-04-08T06:48:30.851Z,17.77
2023-04-08T06:53:24.962Z,18.93
2023-04-08T06:58:17.375Z,19.50
2023-04-08T07:03:09.730Z,22.10
2023-04-08T07:08:01.773Z,21.57
2023-04-08T07:12:54.648Z,19.73
2023-04-08T07:17:47.649Z,19.73
2023-04-08T07:22:40.649Z,20.97
2023-04-08T07:27:34.320Z,17.63
2023-04-08T07:32:27.569Z,60.53
2023-04-08T07:37:19.678Z,19.57
2023-04-08T07:42:12.090Z,12.80
2023-04-08T07:47:04.330Z,10.27
2023-04-08T07:51:57.577Z,7.00
2023-04-08T07:56:49.606Z,5.90
2023-04-08T08:01:41.817Z,5.90
2023-04-08T08:06:33.870Z,6.30
2023-04-08T08:11:28.015Z,5.00
2023-04-08T08:16:20.446Z,6.30
2023-04-08T08:21:12.689Z,4.20
2023-04-08T08:26:12.252Z,4.33
2023-04-08T08:31:06.348Z,4.63
2023-04-08T08:35:58.654Z,4.90
2023-04-08T08:40:57.908Z,5.33
2023-04-08T08:45:50.092Z,6.47
2023-04-08T08:50:42.128Z,6.30
2023-04-08T08:56:02.168Z,6.70
2023-04-08T09:00:47.432Z,6.73
2023-04-08T09:05:59.499Z,8.23
2023-04-08T09:10:51.553Z,8.07
2023-04-08T09:16:08.474Z,9.17
2023-04-08T09:21:02.204Z,9.17
2023-04-08T09:26:07.027Z,8.87
2023-04-08T09:30:58.961Z,8.50
2023-04-08T09:35:52.239Z,10.30
2023-04-08T09:40:45.424Z,11.23
2023-04-08T09:45:41.326Z,10.67
2023-04-08T09:50:40.656Z,9.77
2023-04-08T09:55:36.498Z,9.07
2023-04-08T10:00:34.579Z,10.77
2023-04-08T10:05:27.673Z,11.73
2023-04-08T10:10:20.836Z,11.13
2023-04-08T10:15:29.475Z,11.53
2023-04-08T10:20:36.748Z,11.77
2023-04-08T10:25:34.593Z,10.80
2023-04-08T10:30:31.590Z,12.40
2023-04-08T10:35:31.421Z,10.17
2023-04-08T10:40:23.526Z,10.70
2023-04-08T10:45:18.437Z,9.47
2023-04-08T10:50:16.650Z,10.33
2023-04-08T10:55:09.209Z,9.33
2023-04-08T11:00:01.284Z,8.83
2023-04-08T11:04:54.557Z,9.03
2023-04-08T11:09:46.539Z,9.97
2023-04-08T11:14:41.285Z,10.93
2023-04-08T11:19:36.078Z,12.87
2023-04-08T11:24:28.688Z,13.47
2023-04-08T11:29:21.228Z,18.80
2023-04-08T11:34:21.885Z,17.03
2023-04-08T11:39:13.842Z,17.63
2023-04-08T11:44:07.255Z,18.73
2023-04-08T11:49:08.077Z,14.97
2023-04-08T11:54:02.255Z,16.37
2023-04-08T11:58:54.278Z,17.00
2023-04-08T12:04:00.851Z,16.77
2023-04-08T12:08:54.184Z,17.97
2023-04-08T12:13:46.151Z,17.43
2023-04-08T12:18:38.510Z,19.30
2023-04-08T12:23:30.441Z,18.73
2023-04-08T12:28:22.522Z,21.03
2023-04-08T12:33:14.470Z,19.87
2023-04-08T12:38:06.938Z,22.30
2023-04-08T12:42:58.855Z,21.57
2023-04-08T12:47:51.429Z,24.13
2023-04-08T12:52:43.433Z,23.87
2023-04-08T12:57:35.465Z,25.13
2023-04-08T13:02:27.701Z,22.63
2023-04-08T13:07:20.095Z,21.73
2023-04-08T13:12:12.318Z,22.47
2023-04-08T13:17:04.978Z,21.90
2023-04-08T13:21:57.216Z,19.53
2023-04-08T13:26:49.612Z,22.17
2023-04-08T13:31:41.772Z,18.23
2023-04-08T13:36:33.833Z,18.70
2023-04-08T13:41:26.210Z,17.33
2023-04-08T13:46:18.506Z,19.07
2023-04-08T13:51:10.516Z,19.73
2023-04-08T13:56:03.751Z,15.83
2023-04-08T14:00:56.486Z,14.67
2023-04-08T14:05:49.141Z,14.67
2023-04-08T14:10:43.103Z,17.13
2023-04-08T14:15:35.137Z,16.37
2023-04-08T14:20:27.191Z,15.90
2023-04-08T14:25:19.140Z,44.27
2023-04-08T14:30:11.356Z,14.40
2023-04-08T14:35:03.358Z,16.27
2023-04-08T14:39:55.382Z,19.37
2023-04-08T14:44:47.278Z,16.47
2023-04-08T14:49:39.257Z,15.67
2023-04-08T14:54:31.304Z,14.37
2023-04-08T14:59:23.265Z,15.20
2023-04-08T15:04:15.317Z,14.10
2023-04-08T15:09:07.484Z,16.87
2023-04-08T15:13:59.477Z,14.97
2023-04-08T15:18:51.563Z,15.57
2023-04-08T15:23:43.716Z,15.00
2023-04-08T15:28:37.974Z,15.17
2023-04-08T15:33:31.556Z,14.10
2023-04-08T15:38:23.670Z,14.87
2023-04-08T15:43:15.778Z,13.27
2023-04-08T15:48:07.822Z,15.43
2023-04-08T15:52:59.861Z,17.07
2023-04-08T15:57:54.098Z,18.53
2023-04-08T16:02:46.686Z,16.67
2023-04-08T16:07:39.007Z,15.57
2023-04-08T16:12:30.980Z,17.20
2023-04-08T16:17:23.129Z,14.63
2023-04-08T16:22:15.355Z,16.90
2023-04-08T16:27:07.385Z,16.53
2023-04-08T16:31:59.426Z,16.73
2023-04-08T16:36:51.970Z,15.63
2023-04-08T16:41:44.814Z,16.97
2023-04-08T16:46:36.891Z,14.93
2023-04-08T16:51:29.212Z,15.30
2023-04-08T16:56:22.115Z,15.67
2023-04-08T17:01:14.567Z,16.53
2023-04-08T17:06:17.327Z,25.43
2023-04-08T17:11:16.105Z,15.73
2023-04-08T17:16:15.970Z,17.17
2023-04-08T17:21:08.797Z,15.57
2023-04-08T17:26:05.311Z,15.93
2023-04-08T17:30:57.506Z,18.73
2023-04-08T17:35:49.728Z,18.80
2023-04-08T17:40:41.812Z,17.63
2023-04-08T17:45:33.866Z,16.57
2023-04-08T17:50:25.994Z,17.37
2023-04-08T17:55:18.075Z,20.43
2023-04-08T18:00:10.627Z,28.93
2023-04-08T18:05:06.581Z,23.53
2023-04-08T18:09:58.552Z,20.87
2023-04-08T18:14:50.637Z,20.73
2023-04-08T18:19:42.634Z,21.13
2023-04-08T18:24:34.628Z,20.37
2023-04-08T18:29:26.636Z,22.47
2023-04-08T18:34:20.781Z,25.20
2023-04-08T18:39:12.706Z,19.97
2023-04-08T18:44:04.759Z,19.70
2023-04-08T18:48:56.861Z,19.10
2023-04-08T18:53:49.958Z,20.87
2023-04-08T18:58:43.024Z,21.13
2023-04-08T19:03:38.630Z,21.30
2023-04-08T19:08:30.640Z,22.20
2023-04-08T19:13:23.883Z,19.10
2023-04-08T19:18:16.185Z,23.63
2023-04-08T19:23:08.210Z,24.23
2023-04-08T19:28:00.269Z,25.20
2023-04-08T19:32:52.345Z,23.93
2023-04-08T19:37:44.322Z,24.00
2023-04-08T19:42:36.604Z,25.00
2023-04-08T19:47:29.458Z,28.20
2023-04-08T19:52:22.062Z,25.63
2023-04-08T19:57:14.059Z,25.17
2023-04-08T20:02:06.685Z,27.50
2023-04-08T20:07:01.200Z,37.13
2023-04-08T20:11:53.186Z,58.77
2023-04-08T20:16:45.347Z,51.93
2023-04-08T20:21:37.855Z,34.70
2023-04-08T20:26:29.924Z,45.77
2023-04-08T20:31:22.518Z,33.80
2023-04-08T20:36:14.673Z,31.23
2023-04-08T20:41:07.189Z,30.93
2023-04-08T20:45:59.525Z,43.63
2023-04-08T20:50:51.878Z,58.53
2023-04-08T20:55:43.871Z,48.53
2023-04-08T21:00:36.016Z,40.93
2023-04-08T21:05:28.012Z,43.50
2023-04-08T21:10:20.083Z,57.87
2023-04-08T21:15:12.074Z,43.43
2023-04-08T21:20:06.590Z,34.37
2023-04-08T21:24:58.620Z,35.90
2023-04-08T21:29:53.693Z,129.17
2023-04-08T21:34:48.836Z,97.33
2023-04-08T21:39:40.835Z,244.43
2023-04-08T21:44:33.336Z,162.53
2023-04-08T21:49:25.379Z,82.73
2023-04-08T21:54:17.479Z,83.43
2023-04-08T21:59:09.456Z,56.60
2023-04-08T22:04:01.612Z,36.20
2023-04-08T22:08:53.948Z,36.77
2023-04-08T22:13:45.992Z,56.20
2023-04-08T22:18:37.974Z,33.83
2023-04-08T22:23:30.022Z,47.27
2023-04-08T22:28:22.272Z,40.43
2023-04-08T22:33:14.305Z,34.30
2023-04-08T22:38:06.462Z,32.93
2023-04-08T22:42:58.491Z,39.80
2023-04-08T22:47:50.566Z,40.37
2023-04-08T22:52:42.643Z,39.70
2023-04-08T22:57:34.961Z,33.10
2023-04-08T23:02:26.967Z,33.53
2023-04-08T23:07:21.838Z,37.77
2023-04-08T23:12:13.841Z,50.07
2023-04-08T23:17:06.236Z,44.77
2023-04-08T23:21:58.222Z,35.07
2023-04-08T23:26:50.194Z,49.40
2023-04-08T23:31:42.237Z,43.87
2023-04-08T23:36:34.270Z,42.50
2023-04-08T23:41:26.490Z,36.00
2023-04-08T23:46:18.502Z,32.87
2023-04-08T23:51:12.008Z,35.73
2023-04-08T23:56:05.892Z,35.57
